sensor_id;sensor_type;location;lat;lon;timestamp;temperature;humidity
7998;DHT22;4044;49.814;7.828;2024-02-15T00:00:12;12.50;99.90
7998;DHT22;4044;49.814;7.828;2024-02-15T00:02:38;12.50;99.90
7998;DHT22;4044;49.814;7.828;2024-02-15T00:05:04;12.50;99.90
7998;DHT22;4044;49.814;7.828;2024-02-15T00:07:29;12.40;99.90
7998;DHT22;4044;49.814;7.828;2024-02-15T00:09:55;12.40;99.90
7998;DHT22;4044;49.814;7.828;2024-02-15T00:12:20;12.40;99.90
7998;DHT22;4044;49.814;7.828;2024-02-15T00:14:46;12.40;99.90
7998;DHT22;4044;49.814;7.828;2024-02-15T00:17:12;12.30;99.90
7998;DHT22;4044;49.814;7.828;2024-02-15T00:19:37;12.30;99.90
7998;DHT22;4044;49.814;7.828;2024-02-15T00:22:05;12.20;99.90
7998;DHT22;4044;49.814;7.828;2024-02-15T00:24:30;12.20;99.90
7998;DHT22;4044;49.814;7.828;2024-02-15T00:26:56;12.30;99.90
7998;DHT22;4044;49.814;7.828;2024-02-15T00:29:22;12.40;99.90
7998;DHT22;4044;49.814;7.828;2024-02-15T00:31:48;12.30;99.90
7998;DHT22;4044;49.814;7.828;2024-02-15T00:34:15;12.30;99.90
7998;DHT22;4044;49.814;7.828;2024-02-15T00:36:44;12.20;99.90
7998;DHT22;4044;49.814;7.828;2024-02-15T00:39:11;12.10;99.90
7998;DHT22;4044;49.814;7.828;2024-02-15T00:41:37;12.10;99.90
7998;DHT22;4044;49.814;7.828;2024-02-15T00:44:07;11.90;99.90
7998;DHT22;4044;49.814;7.828;2024-02-15T00:46:33;11.90;99.90
7998;DHT22;4044;49.814;7.828;2024-02-15T00:48:59;11.80;99.90
7998;DHT22;4044;49.814;7.828;2024-02-15T00:51:25;11.90;99.90
7998;DHT22;4044;49.814;7.828;2024-02-15T00:53:50;12.00;99.90
7998;DHT22;4044;49.814;7.828;2024-02-15T00:56:16;12.10;99.90
7998;DHT22;4044;49.814;7.828;2024-02-15T00:58:42;12.20;99.90
7998;DHT22;4044;49.814;7.828;2024-02-15T01:01:09;12.30;99.90
7998;DHT22;4044;49.814;7.828;2024-02-15T01:03:35;12.50;99.90
7998;DHT22;4044;49.814;7.828;2024-02-15T01:06:00;12.70;99.90
7998;DHT22;4044;49.814;7.828;2024-02-15T01:08:26;12.60;99.90
7998;DHT22;4044;49.814;7.828;2024-02-15T01:10:51;12.70;99.90
7998;DHT22;4044;49.814;7.828;2024-02-15T01:13:18;12.70;99.90
7998;DHT22;4044;49.814;7.828;2024-02-15T01:15:44;12.80;99.90
7998;DHT22;4044;49.814;7.828;2024-02-15T01:18:11;12.80;99.90
7998;DHT22;4044;49.814;7.828;2024-02-15T01:20:37;12.90;99.90
7998;DHT22;4044;49.814;7.828;2024-02-15T01:23:03;13.00;99.90
7998;DHT22;4044;49.814;7.828;2024-02-15T01:25:30;13.00;99.90
7998;DHT22;4044;49.814;7.828;2024-02-15T01:27:55;13.00;99.90
7998;DHT22;4044;49.814;7.828;2024-02-15T01:30:21;13.00;99.90
7998;DHT22;4044;49.814;7.828;2024-02-15T01:32:46;13.00;99.90
7998;DHT22;4044;49.814;7.828;2024-02-15T01:35:13;13.00;99.90
7998;DHT22;4044;49.814;7.828;2024-02-15T01:37:38;13.00;99.90
7998;DHT22;4044;49.814;7.828;2024-02-15T01:40:05;12.90;99.90
7998;DHT22;4044;49.814;7.828;2024-02-15T01:42:32;12.90;99.90
7998;DHT22;4044;49.814;7.828;2024-02-15T01:44:57;12.90;99.90
7998;DHT22;4044;49.814;7.828;2024-02-15T01:47:23;13.00;99.90
7998;DHT22;4044;49.814;7.828;2024-02-15T01:49:50;13.00;99.90
7998;DHT22;4044;49.814;7.828;2024-02-15T01:52:18;12.90;99.90
7998;DHT22;4044;49.814;7.828;2024-02-15T01:54:44;12.70;99.90
7998;DHT22;4044;49.814;7.828;2024-02-15T01:57:10;12.80;99.90
7998;DHT22;4044;49.814;7.828;2024-02-15T01:59:36;12.70;99.90
7998;DHT22;4044;49.814;7.828;2024-02-15T02:02:02;12.80;99.90
7998;DHT22;4044;49.814;7.828;2024-02-15T02:04:29;12.80;99.90
7998;DHT22;4044;49.814;7.828;2024-02-15T02:06:57;12.90;99.90
7998;DHT22;4044;49.814;7.828;2024-02-15T02:09:24;12.90;99.90
7998;DHT22;4044;49.814;7.828;2024-02-15T02:11:50;13.00;99.90
7998;DHT22;4044;49.814;7.828;2024-02-15T02:14:16;13.00;99.90
7998;DHT22;4044;49.814;7.828;2024-02-15T02:16:41;13.10;99.90
7998;DHT22;4044;49.814;7.828;2024-02-15T02:19:07;13.00;99.90
7998;DHT22;4044;49.814;7.828;2024-02-15T02:21:35;13.00;99.90
7998;DHT22;4044;49.814;7.828;2024-02-15T02:24:03;13.10;99.90
7998;DHT22;4044;49.814;7.828;2024-02-15T02:26:33;13.10;99.90
7998;DHT22;4044;49.814;7.828;2024-02-15T02:29:00;13.10;99.90
7998;DHT22;4044;49.814;7.828;2024-02-15T02:31:25;13.20;99.90
7998;DHT22;4044;49.814;7.828;2024-02-15T02:33:54;13.10;99.90
7998;DHT22;4044;49.814;7.828;2024-02-15T02:36:20;13.20;99.90
7998;DHT22;4044;49.814;7.828;2024-02-15T02:38:46;13.30;99.90
7998;DHT22;4044;49.814;7.828;2024-02-15T02:41:15;13.30;99.90
7998;DHT22;4044;49.814;7.828;2024-02-15T02:43:41;13.10;99.90
7998;DHT22;4044;49.814;7.828;2024-02-15T02:46:10;13.20;99.90
7998;DHT22;4044;49.814;7.828;2024-02-15T02:48:36;13.20;99.90
7998;DHT22;4044;49.814;7.828;2024-02-15T02:51:02;13.20;99.90
7998;DHT22;4044;49.814;7.828;2024-02-15T02:53:28;13.30;99.90
7998;DHT22;4044;49.814;7.828;2024-02-15T02:55:55;13.30;99.90
7998;DHT22;4044;49.814;7.828;2024-02-15T02:58:21;13.30;99.90
7998;DHT22;4044;49.814;7.828;2024-02-15T03:00:47;13.30;99.90
7998;DHT22;4044;49.814;7.828;2024-02-15T03:03:12;13.40;99.90
7998;DHT22;4044;49.814;7.828;2024-02-15T03:05:38;13.30;99.90
7998;DHT22;4044;49.814;7.828;2024-02-15T03:08:05;13.40;99.90
7998;DHT22;4044;49.814;7.828;2024-02-15T03:10:31;13.40;99.90
7998;DHT22;4044;49.814;7.828;2024-02-15T03:12:56;13.40;99.90
7998;DHT22;4044;49.814;7.828;2024-02-15T03:15:23;13.30;99.90
7998;DHT22;4044;49.814;7.828;2024-02-15T03:17:48;13.30;99.90
7998;DHT22;4044;49.814;7.828;2024-02-15T03:20:14;13.40;99.90
7998;DHT22;4044;49.814;7.828;2024-02-15T03:25:21;13.20;99.90
7998;DHT22;4044;49.814;7.828;2024-02-15T03:27:54;13.20;99.90
7998;DHT22;4044;49.814;7.828;2024-02-15T03:30:22;13.20;99.90
7998;DHT22;4044;49.814;7.828;2024-02-15T03:32:49;13.20;99.90
7998;DHT22;4044;49.814;7.828;2024-02-15T03:35:17;13.30;99.90
7998;DHT22;4044;49.814;7.828;2024-02-15T03:37:43;13.20;99.90
7998;DHT22;4044;49.814;7.828;2024-02-15T03:40:09;13.30;99.90
7998;DHT22;4044;49.814;7.828;2024-02-15T03:42:35;13.30;99.90
7998;DHT22;4044;49.814;7.828;2024-02-15T03:45:04;13.30;99.90
7998;DHT22;4044;49.814;7.828;2024-02-15T03:47:33;13.30;99.90
7998;DHT22;4044;49.814;7.828;2024-02-15T03:50:07;13.40;99.90
7998;DHT22;4044;49.814;7.828;2024-02-15T03:52:37;13.30;99.90
7998;DHT22;4044;49.814;7.828;2024-02-15T03:55:04;13.30;99.90
7998;DHT22;4044;49.814;7.828;2024-02-15T03:57:30;13.30;99.90
7998;DHT22;4044;49.814;7.828;2024-02-15T03:59:55;13.30;99.90
7998;DHT22;4044;49.814;7.828;2024-02-15T04:02:25;13.30;99.90
7998;DHT22;4044;49.814;7.828;2024-02-15T04:04:54;13.30;99.90
7998;DHT22;4044;49.814;7.828;2024-02-15T04:07:23;13.40;99.90
7998;DHT22;4044;49.814;7.828;2024-02-15T04:09:52;13.30;99.90
7998;DHT22;4044;49.814;7.828;2024-02-15T04:12:18;13.20;99.90
7998;DHT22;4044;49.814;7.828;2024-02-15T04:14:44;13.20;99.90
7998;DHT22;4044;49.814;7.828;2024-02-15T04:17:13;13.20;99.90
7998;DHT22;4044;49.814;7.828;2024-02-15T04:19:41;13.30;99.90
7998;DHT22;4044;49.814;7.828;2024-02-15T04:22:06;13.30;99.90
7998;DHT22;4044;49.814;7.828;2024-02-15T04:24:36;13.40;99.90
7998;DHT22;4044;49.814;7.828;2024-02-15T04:27:08;13.40;99.90
7998;DHT22;4044;49.814;7.828;2024-02-15T04:29:37;13.50;99.90
7998;DHT22;4044;49.814;7.828;2024-02-15T04:32:09;13.50;99.90
7998;DHT22;4044;49.814;7.828;2024-02-15T04:34:35;13.40;99.90
7998;DHT22;4044;49.814;7.828;2024-02-15T04:37:00;13.50;99.90
7998;DHT22;4044;49.814;7.828;2024-02-15T04:39:32;13.50;99.90
7998;DHT22;4044;49.814;7.828;2024-02-15T04:41:57;13.50;99.90
7998;DHT22;4044;49.814;7.828;2024-02-15T04:44:23;13.40;99.90
7998;DHT22;4044;49.814;7.828;2024-02-15T04:46:53;13.40;99.90
7998;DHT22;4044;49.814;7.828;2024-02-15T04:49:19;13.40;99.90
7998;DHT22;4044;49.814;7.828;2024-02-15T04:51:45;13.30;99.90
7998;DHT22;4044;49.814;7.828;2024-02-15T04:54:11;13.40;99.90
7998;DHT22;4044;49.814;7.828;2024-02-15T04:56:40;13.30;99.90
7998;DHT22;4044;49.814;7.828;2024-02-15T04:59:06;13.20;99.90
7998;DHT22;4044;49.814;7.828;2024-02-15T05:01:34;13.20;99.90
7998;DHT22;4044;49.814;7.828;2024-02-15T05:04:00;13.20;99.90
7998;DHT22;4044;49.814;7.828;2024-02-15T05:06:29;13.20;99.90
7998;DHT22;4044;49.814;7.828;2024-02-15T05:08:55;13.30;99.90
7998;DHT22;4044;49.814;7.828;2024-02-15T05:11:21;13.30;99.90
7998;DHT22;4044;49.814;7.828;2024-02-15T05:13:48;13.30;99.90
7998;DHT22;4044;49.814;7.828;2024-02-15T05:16:16;13.30;99.90
7998;DHT22;4044;49.814;7.828;2024-02-15T05:18:42;13.30;99.90
7998;DHT22;4044;49.814;7.828;2024-02-15T05:21:08;13.30;99.90
7998;DHT22;4044;49.814;7.828;2024-02-15T05:23:35;13.30;99.90
7998;DHT22;4044;49.814;7.828;2024-02-15T05:26:02;13.30;99.90
7998;DHT22;4044;49.814;7.828;2024-02-15T05:28:28;13.30;99.90
7998;DHT22;4044;49.814;7.828;2024-02-15T05:31:19;13.30;99.90
7998;DHT22;4044;49.814;7.828;2024-02-15T05:33:49;13.30;99.90
7998;DHT22;4044;49.814;7.828;2024-02-15T05:36:15;13.30;99.90
7998;DHT22;4044;49.814;7.828;2024-02-15T05:38:41;13.30;99.90
7998;DHT22;4044;49.814;7.828;2024-02-15T05:41:11;13.30;99.90
7998;DHT22;4044;49.814;7.828;2024-02-15T05:43:39;13.20;99.90
7998;DHT22;4044;49.814;7.828;2024-02-15T05:46:07;13.30;99.90
7998;DHT22;4044;49.814;7.828;2024-02-15T05:48:33;13.30;99.90
7998;DHT22;4044;49.814;7.828;2024-02-15T05:51:01;13.20;99.90
7998;DHT22;4044;49.814;7.828;2024-02-15T05:53:27;13.00;99.90
7998;DHT22;4044;49.814;7.828;2024-02-15T05:55:52;12.90;99.90
7998;DHT22;4044;49.814;7.828;2024-02-15T05:58:18;12.70;99.90
7998;DHT22;4044;49.814;7.828;2024-02-15T06:00:44;12.60;99.90
7998;DHT22;4044;49.814;7.828;2024-02-15T06:03:10;12.30;99.90
7998;DHT22;4044;49.814;7.828;2024-02-15T06:05:36;12.20;99.90
7998;DHT22;4044;49.814;7.828;2024-02-15T06:08:02;12.20;99.90
7998;DHT22;4044;49.814;7.828;2024-02-15T06:10:28;12.00;99.90
7998;DHT22;4044;49.814;7.828;2024-02-15T06:12:55;11.90;99.90
7998;DHT22;4044;49.814;7.828;2024-02-15T06:15:21;11.80;99.90
7998;DHT22;4044;49.814;7.828;2024-02-15T06:17:46;11.70;99.90
7998;DHT22;4044;49.814;7.828;2024-02-15T06:20:13;11.70;99.90
7998;DHT22;4044;49.814;7.828;2024-02-15T06:22:43;11.60;99.90
7998;DHT22;4044;49.814;7.828;2024-02-15T06:25:10;11.60;99.90
7998;DHT22;4044;49.814;7.828;2024-02-15T06:27:37;11.50;99.90
7998;DHT22;4044;49.814;7.828;2024-02-15T06:30:07;11.60;99.90
7998;DHT22;4044;49.814;7.828;2024-02-15T06:32:51;11.60;99.90
7998;DHT22;4044;49.814;7.828;2024-02-15T06:35:35;11.40;99.90
7998;DHT22;4044;49.814;7.828;2024-02-15T06:38:19;11.30;99.90
7998;DHT22;4044;49.814;7.828;2024-02-15T06:41:03;11.20;99.90
7998;DHT22;4044;49.814;7.828;2024-02-15T06:43:28;11.30;99.90
7998;DHT22;4044;49.814;7.828;2024-02-15T06:45:54;11.30;99.90
7998;DHT22;4044;49.814;7.828;2024-02-15T06:48:20;11.30;99.90
7998;DHT22;4044;49.814;7.828;2024-02-15T06:50:48;11.30;99.90
7998;DHT22;4044;49.814;7.828;2024-02-15T06:53:14;11.20;99.90
7998;DHT22;4044;49.814;7.828;2024-02-15T06:55:40;11.20;99.90
7998;DHT22;4044;49.814;7.828;2024-02-15T06:58:05;11.20;99.90
7998;DHT22;4044;49.814;7.828;2024-02-15T07:00:31;11.10;99.90
7998;DHT22;4044;49.814;7.828;2024-02-15T07:02:57;11.00;99.90
7998;DHT22;4044;49.814;7.828;2024-02-15T07:05:23;11.00;99.90
7998;DHT22;4044;49.814;7.828;2024-02-15T07:07:49;11.00;99.90
7998;DHT22;4044;49.814;7.828;2024-02-15T07:10:15;11.00;99.90
7998;DHT22;4044;49.814;7.828;2024-02-15T07:12:42;11.00;99.90
7998;DHT22;4044;49.814;7.828;2024-02-15T07:15:09;11.00;99.90
7998;DHT22;4044;49.814;7.828;2024-02-15T07:17:35;11.10;99.90
7998;DHT22;4044;49.814;7.828;2024-02-15T07:20:02;11.10;99.90
7998;DHT22;4044;49.814;7.828;2024-02-15T07:22:30;11.20;99.90
7998;DHT22;4044;49.814;7.828;2024-02-15T07:24:57;11.30;99.90
7998;DHT22;4044;49.814;7.828;2024-02-15T07:27:22;11.40;99.90
7998;DHT22;4044;49.814;7.828;2024-02-15T07:29:50;11.50;99.90
7998;DHT22;4044;49.814;7.828;2024-02-15T07:32:16;11.60;99.90
7998;DHT22;4044;49.814;7.828;2024-02-15T07:34:42;11.40;99.90
7998;DHT22;4044;49.814;7.828;2024-02-15T07:37:09;11.40;99.90
7998;DHT22;4044;49.814;7.828;2024-02-15T07:39:35;11.50;99.90
7998;DHT22;4044;49.814;7.828;2024-02-15T07:42:01;11.60;99.90
7998;DHT22;4044;49.814;7.828;2024-02-15T07:44:30;11.70;99.90
7998;DHT22;4044;49.814;7.828;2024-02-15T07:46:58;11.70;99.90
7998;DHT22;4044;49.814;7.828;2024-02-15T07:49:26;11.70;99.90
7998;DHT22;4044;49.814;7.828;2024-02-15T07:51:51;11.80;99.90
7998;DHT22;4044;49.814;7.828;2024-02-15T07:54:19;11.90;99.90
7998;DHT22;4044;49.814;7.828;2024-02-15T07:56:48;12.00;99.90
7998;DHT22;4044;49.814;7.828;2024-02-15T07:59:14;12.00;99.90
7998;DHT22;4044;49.814;7.828;2024-02-15T08:01:42;12.10;99.90
7998;DHT22;4044;49.814;7.828;2024-02-15T08:04:08;12.30;99.90
7998;DHT22;4044;49.814;7.828;2024-02-15T08:06:33;12.30;99.90
7998;DHT22;4044;49.814;7.828;2024-02-15T08:09:02;12.40;99.90
7998;DHT22;4044;49.814;7.828;2024-02-15T08:11:30;12.40;99.90
7998;DHT22;4044;49.814;7.828;2024-02-15T08:13:55;12.60;99.90
7998;DHT22;4044;49.814;7.828;2024-02-15T08:16:25;12.60;99.90
7998;DHT22;4044;49.814;7.828;2024-02-15T08:18:53;12.60;99.90
7998;DHT22;4044;49.814;7.828;2024-02-15T08:21:31;12.70;99.90
7998;DHT22;4044;49.814;7.828;2024-02-15T08:24:02;12.80;99.90
7998;DHT22;4044;49.814;7.828;2024-02-15T08:26:36;12.90;99.90
7998;DHT22;4044;49.814;7.828;2024-02-15T08:29:03;12.90;99.90
7998;DHT22;4044;49.814;7.828;2024-02-15T08:31:29;12.80;99.90
7998;DHT22;4044;49.814;7.828;2024-02-15T08:33:57;12.70;99.90
7998;DHT22;4044;49.814;7.828;2024-02-15T08:36:22;12.70;99.90
7998;DHT22;4044;49.814;7.828;2024-02-15T08:38:49;12.80;99.90
7998;DHT22;4044;49.814;7.828;2024-02-15T08:41:15;12.80;99.90
7998;DHT22;4044;49.814;7.828;2024-02-15T08:43:43;12.80;99.90
7998;DHT22;4044;49.814;7.828;2024-02-15T08:46:09;12.80;99.90
7998;DHT22;4044;49.814;7.828;2024-02-15T08:48:35;12.90;99.90
7998;DHT22;4044;49.814;7.828;2024-02-15T08:51:01;12.80;99.90
7998;DHT22;4044;49.814;7.828;2024-02-15T08:53:27;12.90;99.90
7998;DHT22;4044;49.814;7.828;2024-02-15T08:55:53;12.90;99.90
7998;DHT22;4044;49.814;7.828;2024-02-15T08:58:19;12.90;99.90
7998;DHT22;4044;49.814;7.828;2024-02-15T09:00:46;12.90;99.90
7998;DHT22;4044;49.814;7.828;2024-02-15T09:03:12;13.00;99.90
7998;DHT22;4044;49.814;7.828;2024-02-15T09:05:39;13.00;99.90
7998;DHT22;4044;49.814;7.828;2024-02-15T09:08:06;13.10;99.90
7998;DHT22;4044;49.814;7.828;2024-02-15T09:10:32;13.10;99.90
7998;DHT22;4044;49.814;7.828;2024-02-15T09:12:57;13.30;99.90
7998;DHT22;4044;49.814;7.828;2024-02-15T09:15:23;13.30;99.90
7998;DHT22;4044;49.814;7.828;2024-02-15T09:17:48;13.30;99.90
7998;DHT22;4044;49.814;7.828;2024-02-15T09:20:15;13.40;99.90
7998;DHT22;4044;49.814;7.828;2024-02-15T09:22:50;13.50;99.90
7998;DHT22;4044;49.814;7.828;2024-02-15T09:25:17;13.70;99.90
7998;DHT22;4044;49.814;7.828;2024-02-15T09:27:43;13.80;99.90
7998;DHT22;4044;49.814;7.828;2024-02-15T09:30:09;14.00;99.90
7998;DHT22;4044;49.814;7.828;2024-02-15T09:32:41;14.30;99.90
7998;DHT22;4044;49.814;7.828;2024-02-15T09:35:08;14.50;99.90
7998;DHT22;4044;49.814;7.828;2024-02-15T09:37:38;14.70;99.90
7998;DHT22;4044;49.814;7.828;2024-02-15T09:40:10;14.80;99.90
7998;DHT22;4044;49.814;7.828;2024-02-15T09:42:37;14.90;99.90
7998;DHT22;4044;49.814;7.828;2024-02-15T09:45:05;15.10;99.90
7998;DHT22;4044;49.814;7.828;2024-02-15T09:47:37;15.30;99.90
7998;DHT22;4044;49.814;7.828;2024-02-15T09:50:07;15.40;99.90
7998;DHT22;4044;49.814;7.828;2024-02-15T09:52:33;15.40;99.90
7998;DHT22;4044;49.814;7.828;2024-02-15T09:55:03;15.60;99.90
7998;DHT22;4044;49.814;7.828;2024-02-15T09:57:30;15.90;99.90
7998;DHT22;4044;49.814;7.828;2024-02-15T09:59:58;16.00;99.90
7998;DHT22;4044;49.814;7.828;2024-02-15T10:02:25;16.10;99.90
7998;DHT22;4044;49.814;7.828;2024-02-15T10:04:52;16.30;99.90
7998;DHT22;4044;49.814;7.828;2024-02-15T10:07:18;16.50;99.90
7998;DHT22;4044;49.814;7.828;2024-02-15T10:09:44;16.40;99.90
7998;DHT22;4044;49.814;7.828;2024-02-15T10:12:10;16.40;99.90
7998;DHT22;4044;49.814;7.828;2024-02-15T10:14:35;16.50;99.90
7998;DHT22;4044;49.814;7.828;2024-02-15T10:17:08;16.60;99.90
7998;DHT22;4044;49.814;7.828;2024-02-15T10:19:38;16.80;99.90
7998;DHT22;4044;49.814;7.828;2024-02-15T10:22:08;17.00;99.90
7998;DHT22;4044;49.814;7.828;2024-02-15T10:24:33;17.20;99.90
7998;DHT22;4044;49.814;7.828;2024-02-15T10:27:01;17.30;99.90
7998;DHT22;4044;49.814;7.828;2024-02-15T10:29:32;17.40;99.90
7998;DHT22;4044;49.814;7.828;2024-02-15T10:32:00;17.60;99.90
7998;DHT22;4044;49.814;7.828;2024-02-15T10:34:27;17.80;99.90
7998;DHT22;4044;49.814;7.828;2024-02-15T10:37:13;17.90;99.90
7998;DHT22;4044;49.814;7.828;2024-02-15T10:39:39;18.00;99.90
7998;DHT22;4044;49.814;7.828;2024-02-15T10:42:06;17.90;99.60
7998;DHT22;4044;49.814;7.828;2024-02-15T10:44:32;17.80;99.80
7998;DHT22;4044;49.814;7.828;2024-02-15T10:47:01;17.60;99.40
7998;DHT22;4044;49.814;7.828;2024-02-15T10:49:32;17.50;99.00
7998;DHT22;4044;49.814;7.828;2024-02-15T10:51:59;17.50;99.40
7998;DHT22;4044;49.814;7.828;2024-02-15T10:57:04;17.30;98.00
7998;DHT22;4044;49.814;7.828;2024-02-15T10:59:34;17.40;99.80
7998;DHT22;4044;49.814;7.828;2024-02-15T11:02:15;17.30;99.30
7998;DHT22;4044;49.814;7.828;2024-02-15T11:04:52;17.40;99.50
7998;DHT22;4044;49.814;7.828;2024-02-15T11:07:26;17.40;99.80
7998;DHT22;4044;49.814;7.828;2024-02-15T11:09:53;17.50;99.40
7998;DHT22;4044;49.814;7.828;2024-02-15T11:12:19;17.60;99.50
7998;DHT22;4044;49.814;7.828;2024-02-15T11:14:45;17.70;99.40
7998;DHT22;4044;49.814;7.828;2024-02-15T11:17:11;17.90;99.70
7998;DHT22;4044;49.814;7.828;2024-02-15T11:22:15;18.10;98.90
7998;DHT22;4044;49.814;7.828;2024-02-15T11:24:51;18.20;98.30
7998;DHT22;4044;49.814;7.828;2024-02-15T11:27:29;18.20;98.80
7998;DHT22;4044;49.814;7.828;2024-02-15T11:29:59;18.30;98.50
7998;DHT22;4044;49.814;7.828;2024-02-15T11:32:40;18.30;97.70
7998;DHT22;4044;49.814;7.828;2024-02-15T11:35:13;18.30;97.70
7998;DHT22;4044;49.814;7.828;2024-02-15T11:40:15;18.60;97.60
7998;DHT22;4044;49.814;7.828;2024-02-15T11:42:42;18.70;98.20
7998;DHT22;4044;49.814;7.828;2024-02-15T11:45:08;18.90;97.70
7998;DHT22;4044;49.814;7.828;2024-02-15T11:47:37;18.80;97.60
7998;DHT22;4044;49.814;7.828;2024-02-15T11:50:07;18.90;97.70
7998;DHT22;4044;49.814;7.828;2024-02-15T11:52:33;18.90;97.70
7998;DHT22;4044;49.814;7.828;2024-02-15T11:55:06;18.80;96.70
7998;DHT22;4044;49.814;7.828;2024-02-15T11:57:41;18.90;97.60
7998;DHT22;4044;49.814;7.828;2024-02-15T12:00:23;19.00;98.20
7998;DHT22;4044;49.814;7.828;2024-02-15T12:03:09;19.00;97.90
7998;DHT22;4044;49.814;7.828;2024-02-15T12:05:54;19.00;98.00
7998;DHT22;4044;49.814;7.828;2024-02-15T12:08:39;19.10;98.20
7998;DHT22;4044;49.814;7.828;2024-02-15T12:11:23;19.00;97.50
7998;DHT22;4044;49.814;7.828;2024-02-15T12:14:12;19.00;97.80
7998;DHT22;4044;49.814;7.828;2024-02-15T12:17:04;19.00;97.30
7998;DHT22;4044;49.814;7.828;2024-02-15T12:19:49;19.10;97.40
7998;DHT22;4044;49.814;7.828;2024-02-15T12:22:20;19.30;97.90
7998;DHT22;4044;49.814;7.828;2024-02-15T12:24:57;19.40;98.20
7998;DHT22;4044;49.814;7.828;2024-02-15T12:27:23;19.50;97.90
7998;DHT22;4044;49.814;7.828;2024-02-15T12:29:53;19.50;97.90
7998;DHT22;4044;49.814;7.828;2024-02-15T12:32:23;19.40;97.30
7998;DHT22;4044;49.814;7.828;2024-02-15T12:34:50;19.50;97.80
7998;DHT22;4044;49.814;7.828;2024-02-15T12:37:18;19.60;97.80
7998;DHT22;4044;49.814;7.828;2024-02-15T12:39:46;19.60;97.50
7998;DHT22;4044;49.814;7.828;2024-02-15T12:42:12;19.60;97.60
7998;DHT22;4044;49.814;7.828;2024-02-15T12:44:43;19.60;97.60
7998;DHT22;4044;49.814;7.828;2024-02-15T12:47:26;19.70;97.60
7998;DHT22;4044;49.814;7.828;2024-02-15T12:49:53;19.70;97.30
7998;DHT22;4044;49.814;7.828;2024-02-15T12:52:38;19.70;97.20
7998;DHT22;4044;49.814;7.828;2024-02-15T12:55:15;19.80;97.60
7998;DHT22;4044;49.814;7.828;2024-02-15T12:57:44;19.70;97.80
7998;DHT22;4044;49.814;7.828;2024-02-15T13:00:14;19.60;98.10
7998;DHT22;4044;49.814;7.828;2024-02-15T13:02:46;19.50;98.10
7998;DHT22;4044;49.814;7.828;2024-02-15T13:05:18;19.40;97.70
7998;DHT22;4044;49.814;7.828;2024-02-15T13:07:44;19.50;98.40
7998;DHT22;4044;49.814;7.828;2024-02-15T13:10:10;19.60;98.00
7998;DHT22;4044;49.814;7.828;2024-02-15T13:12:36;19.70;98.10
7998;DHT22;4044;49.814;7.828;2024-02-15T13:15:04;19.80;97.90
7998;DHT22;4044;49.814;7.828;2024-02-15T13:17:31;19.90;97.50
7998;DHT22;4044;49.814;7.828;2024-02-15T13:19:57;20.00;97.60
7998;DHT22;4044;49.814;7.828;2024-02-15T13:22:28;20.10;97.60
7998;DHT22;4044;49.814;7.828;2024-02-15T13:24:54;20.00;97.30
7998;DHT22;4044;49.814;7.828;2024-02-15T13:27:20;19.70;97.50
7998;DHT22;4044;49.814;7.828;2024-02-15T13:29:47;19.60;97.90
7998;DHT22;4044;49.814;7.828;2024-02-15T13:32:12;19.70;97.80
7998;DHT22;4044;49.814;7.828;2024-02-15T13:34:40;19.70;98.00
7998;DHT22;4044;49.814;7.828;2024-02-15T13:37:05;19.50;97.80
7998;DHT22;4044;49.814;7.828;2024-02-15T13:39:30;19.40;97.90
7998;DHT22;4044;49.814;7.828;2024-02-15T13:42:01;19.50;98.30
7998;DHT22;4044;49.814;7.828;2024-02-15T13:44:27;19.40;98.00
7998;DHT22;4044;49.814;7.828;2024-02-15T13:46:52;19.40;98.30
7998;DHT22;4044;49.814;7.828;2024-02-15T13:49:21;19.30;98.30
7998;DHT22;4044;49.814;7.828;2024-02-15T13:51:47;19.10;98.20
7998;DHT22;4044;49.814;7.828;2024-02-15T13:54:12;19.10;98.40
7998;DHT22;4044;49.814;7.828;2024-02-15T13:56:38;18.90;97.60
7998;DHT22;4044;49.814;7.828;2024-02-15T13:59:05;18.80;98.40
7998;DHT22;4044;49.814;7.828;2024-02-15T14:01:31;18.70;98.70
7998;DHT22;4044;49.814;7.828;2024-02-15T14:03:56;18.60;98.50
7998;DHT22;4044;49.814;7.828;2024-02-15T14:06:22;18.20;98.90
7998;DHT22;4044;49.814;7.828;2024-02-15T14:08:47;18.00;99.00
7998;DHT22;4044;49.814;7.828;2024-02-15T14:11:13;17.80;99.40
7998;DHT22;4044;49.814;7.828;2024-02-15T14:13:39;17.90;99.40
7998;DHT22;4044;49.814;7.828;2024-02-15T14:16:05;18.00;99.50
7998;DHT22;4044;49.814;7.828;2024-02-15T14:18:33;18.00;99.00
7998;DHT22;4044;49.814;7.828;2024-02-15T14:21:00;18.00;99.00
7998;DHT22;4044;49.814;7.828;2024-02-15T14:23:26;18.00;98.90
7998;DHT22;4044;49.814;7.828;2024-02-15T14:25:53;17.90;98.70
7998;DHT22;4044;49.814;7.828;2024-02-15T14:28:19;17.90;98.80
7998;DHT22;4044;49.814;7.828;2024-02-15T14:30:44;17.90;98.70
7998;DHT22;4044;49.814;7.828;2024-02-15T14:33:28;17.90;98.60
7998;DHT22;4044;49.814;7.828;2024-02-15T14:35:54;17.90;98.60
7998;DHT22;4044;49.814;7.828;2024-02-15T14:38:20;17.90;98.80
7998;DHT22;4044;49.814;7.828;2024-02-15T14:40:48;17.90;98.60
7998;DHT22;4044;49.814;7.828;2024-02-15T14:43:22;17.80;98.30
7998;DHT22;4044;49.814;7.828;2024-02-15T14:45:48;17.60;98.10
7998;DHT22;4044;49.814;7.828;2024-02-15T14:48:14;17.50;98.20
7998;DHT22;4044;49.814;7.828;2024-02-15T14:50:43;17.40;98.20
7998;DHT22;4044;49.814;7.828;2024-02-15T14:53:09;17.40;98.20
7998;DHT22;4044;49.814;7.828;2024-02-15T14:55:38;17.30;98.30
7998;DHT22;4044;49.814;7.828;2024-02-15T14:58:11;17.20;98.40
7998;DHT22;4044;49.814;7.828;2024-02-15T15:00:38;17.20;98.60
7998;DHT22;4044;49.814;7.828;2024-02-15T15:03:04;17.20;98.60
7998;DHT22;4044;49.814;7.828;2024-02-15T15:05:31;17.30;98.60
7998;DHT22;4044;49.814;7.828;2024-02-15T15:08:15;17.20;98.30
7998;DHT22;4044;49.814;7.828;2024-02-15T15:10:59;17.20;98.40
7998;DHT22;4044;49.814;7.828;2024-02-15T15:13:43;17.20;98.20
7998;DHT22;4044;49.814;7.828;2024-02-15T15:16:08;17.20;98.50
7998;DHT22;4044;49.814;7.828;2024-02-15T15:18:39;17.10;98.10
7998;DHT22;4044;49.814;7.828;2024-02-15T15:21:05;17.10;98.20
7998;DHT22;4044;49.814;7.828;2024-02-15T15:23:30;17.10;98.10
7998;DHT22;4044;49.814;7.828;2024-02-15T15:25:57;17.00;98.10
7998;DHT22;4044;49.814;7.828;2024-02-15T15:28:23;17.00;98.20
7998;DHT22;4044;49.814;7.828;2024-02-15T15:30:49;17.00;98.20
7998;DHT22;4044;49.814;7.828;2024-02-15T15:33:16;17.00;98.20
7998;DHT22;4044;49.814;7.828;2024-02-15T15:35:43;17.00;98.30
7998;DHT22;4044;49.814;7.828;2024-02-15T15:38:08;17.00;98.30
7998;DHT22;4044;49.814;7.828;2024-02-15T15:40:34;16.90;98.20
7998;DHT22;4044;49.814;7.828;2024-02-15T15:42:59;17.00;98.30
7998;DHT22;4044;49.814;7.828;2024-02-15T15:45:25;16.90;98.30
7998;DHT22;4044;49.814;7.828;2024-02-15T15:47:50;16.90;98.40
7998;DHT22;4044;49.814;7.828;2024-02-15T15:50:16;16.90;98.40
7998;DHT22;4044;49.814;7.828;2024-02-15T15:52:42;16.90;98.40
7998;DHT22;4044;49.814;7.828;2024-02-15T15:55:10;16.90;98.40
7998;DHT22;4044;49.814;7.828;2024-02-15T15:57:42;16.70;98.50
7998;DHT22;4044;49.814;7.828;2024-02-15T16:00:09;16.60;98.50
7998;DHT22;4044;49.814;7.828;2024-02-15T16:02:44;16.60;98.50
7998;DHT22;4044;49.814;7.828;2024-02-15T16:05:11;16.50;98.50
7998;DHT22;4044;49.814;7.828;2024-02-15T16:07:38;16.50;98.60
7998;DHT22;4044;49.814;7.828;2024-02-15T16:10:04;16.40;98.70
7998;DHT22;4044;49.814;7.828;2024-02-15T16:12:30;16.40;98.70
7998;DHT22;4044;49.814;7.828;2024-02-15T16:14:57;16.20;98.80
7998;DHT22;4044;49.814;7.828;2024-02-15T16:17:22;16.20;98.90